sensor_id;sensor_type;location;lat;lon;timestamp;P1;durP1;ratioP1;P2;durP2;ratioP2
9364;SDS011;4722;49.340;9.800;2023-08-24T00:00:22;5.18;;;3.20;;
9364;SDS011;4722;49.340;9.800;2023-08-24T00:02:48;5.05;;;3.28;;
9364;SDS011;4722;49.340;9.800;2023-08-24T00:05:14;5.70;;;2.97;;
9364;SDS011;4722;49.340;9.800;2023-08-24T00:07:41;11.50;;;3.42;;
9364;SDS011;4722;49.340;9.800;2023-08-24T00:10:06;5.97;;;3.25;;
9364;SDS011;4722;49.340;9.800;2023-08-24T00:12:32;6.57;;;3.38;;
9364;SDS011;4722;49.340;9.800;2023-08-24T00:14:59;5.97;;;2.80;;
9364;SDS011;4722;49.340;9.800;2023-08-24T00:17:25;4.07;;;2.70;;
9364;SDS011;4722;49.340;9.800;2023-08-24T00:19:51;6.47;;;3.17;;
9364;SDS011;4722;49.340;9.800;2023-08-24T00:22:17;5.68;;;3.88;;
9364;SDS011;4722;49.340;9.800;2023-08-24T00:24:43;4.28;;;2.83;;
9364;SDS011;4722;49.340;9.800;2023-08-24T00:27:09;7.65;;;3.70;;
9364;SDS011;4722;49.340;9.800;2023-08-24T00:29:35;7.07;;;2.85;;
9364;SDS011;4722;49.340;9.800;2023-08-24T00:32:01;6.35;;;3.20;;
9364;SDS011;4722;49.340;9.800;2023-08-24T00:34:27;9.18;;;3.55;;
9364;SDS011;4722;49.340;9.800;2023-08-24T00:36:52;5.40;;;3.70;;
9364;SDS011;4722;49.340;9.800;2023-08-24T00:39:18;4.35;;;2.75;;
9364;SDS011;4722;49.340;9.800;2023-08-24T00:41:45;4.93;;;3.22;;
9364;SDS011;4722;49.340;9.800;2023-08-24T00:44:11;3.42;;;2.55;;
9364;SDS011;4722;49.340;9.800;2023-08-24T00:46:37;4.82;;;3.15;;
9364;SDS011;4722;49.340;9.800;2023-08-24T00:49:03;5.15;;;2.92;;
9364;SDS011;4722;49.340;9.800;2023-08-24T00:51:28;6.25;;;3.58;;
9364;SDS011;4722;49.340;9.800;2023-08-24T00:53:54;4.88;;;3.47;;
9364;SDS011;4722;49.340;9.800;2023-08-24T00:56:23;11.30;;;3.40;;
9364;SDS011;4722;49.340;9.800;2023-08-24T00:58:50;8.20;;;3.92;;
9364;SDS011;4722;49.340;9.800;2023-08-24T01:01:19;8.40;;;3.42;;
9364;SDS011;4722;49.340;9.800;2023-08-24T01:03:45;7.03;;;3.58;;
9364;SDS011;4722;49.340;9.800;2023-08-24T01:06:11;7.95;;;3.67;;
9364;SDS011;4722;49.340;9.800;2023-08-24T01:08:36;5.43;;;3.25;;
9364;SDS011;4722;49.340;9.800;2023-08-24T01:11:11;6.70;;;3.58;;
9364;SDS011;4722;49.340;9.800;2023-08-24T01:13:58;8.57;;;3.08;;
9364;SDS011;4722;49.340;9.800;2023-08-24T01:16:27;4.82;;;3.45;;
9364;SDS011;4722;49.340;9.800;2023-08-24T01:18:56;5.10;;;2.88;;
9364;SDS011;4722;49.340;9.800;2023-08-24T01:21:24;7.85;;;3.00;;
9364;SDS011;4722;49.340;9.800;2023-08-24T01:23:53;5.03;;;3.53;;
9364;SDS011;4722;49.340;9.800;2023-08-24T01:26:21;4.80;;;3.25;;
9364;SDS011;4722;49.340;9.800;2023-08-24T01:28:47;6.40;;;3.75;;
9364;SDS011;4722;49.340;9.800;2023-08-24T01:31:14;8.75;;;3.72;;
9364;SDS011;4722;49.340;9.800;2023-08-24T01:33:41;4.43;;;3.22;;
9364;SDS011;4722;49.340;9.800;2023-08-24T01:36:08;5.70;;;3.13;;
9364;SDS011;4722;49.340;9.800;2023-08-24T01:38:34;5.88;;;2.97;;
9364;SDS011;4722;49.340;9.800;2023-08-24T01:43:29;5.75;;;3.50;;
9364;SDS011;4722;49.340;9.800;2023-08-24T01:45:59;4.95;;;2.60;;
9364;SDS011;4722;49.340;9.800;2023-08-24T01:48:25;7.00;;;3.50;;
9364;SDS011;4722;49.340;9.800;2023-08-24T01:50:51;4.63;;;3.00;;
9364;SDS011;4722;49.340;9.800;2023-08-24T01:53:17;7.25;;;3.10;;
9364;SDS011;4722;49.340;9.800;2023-08-24T01:55:47;3.42;;;2.83;;
9364;SDS011;4722;49.340;9.800;2023-08-24T01:58:12;4.45;;;3.10;;
9364;SDS011;4722;49.340;9.800;2023-08-24T02:00:38;4.03;;;2.40;;
9364;SDS011;4722;49.340;9.800;2023-08-24T02:03:04;4.28;;;2.97;;
9364;SDS011;4722;49.340;9.800;2023-08-24T02:05:30;7.95;;;3.17;;
9364;SDS011;4722;49.340;9.800;2023-08-24T02:07:56;5.28;;;3.45;;
9364;SDS011;4722;49.340;9.800;2023-08-24T02:10:22;5.88;;;3.08;;
9364;SDS011;4722;49.340;9.800;2023-08-24T02:12:48;9.90;;;4.15;;
9364;SDS011;4722;49.340;9.800;2023-08-24T02:15:14;5.97;;;3.20;;
9364;SDS011;4722;49.340;9.800;2023-08-24T02:17:40;4.70;;;2.78;;
9364;SDS011;4722;49.340;9.800;2023-08-24T02:20:06;10.13;;;3.05;;
9364;SDS011;4722;49.340;9.800;2023-08-24T02:22:36;4.78;;;3.33;;
9364;SDS011;4722;49.340;9.800;2023-08-24T02:25:02;4.13;;;2.72;;
9364;SDS011;4722;49.340;9.800;2023-08-24T02:27:30;9.52;;;3.95;;
9364;SDS011;4722;49.340;9.800;2023-08-24T02:29:56;4.72;;;3.25;;
9364;SDS011;4722;49.340;9.800;2023-08-24T02:32:22;8.10;;;4.00;;
9364;SDS011;4722;49.340;9.800;2023-08-24T02:34:48;4.93;;;3.50;;
9364;SDS011;4722;49.340;9.800;2023-08-24T02:37:14;5.20;;;2.92;;
9364;SDS011;4722;49.340;9.800;2023-08-24T02:39:42;5.05;;;3.58;;
9364;SDS011;4722;49.340;9.800;2023-08-24T02:42:08;5.25;;;2.55;;
9364;SDS011;4722;49.340;9.800;2023-08-24T02:44:34;5.95;;;3.15;;
9364;SDS011;4722;49.340;9.800;2023-08-24T02:46:59;4.65;;;2.88;;
9364;SDS011;4722;49.340;9.800;2023-08-24T02:49:25;4.95;;;3.33;;
9364;SDS011;4722;49.340;9.800;2023-08-24T02:51:51;6.47;;;3.28;;
9364;SDS011;4722;49.340;9.800;2023-08-24T02:54:17;4.68;;;3.60;;
9364;SDS011;4722;49.340;9.800;2023-08-24T02:56:43;4.68;;;3.10;;
9364;SDS011;4722;49.340;9.800;2023-08-24T02:59:08;5.03;;;2.72;;
9364;SDS011;4722;49.340;9.800;2023-08-24T03:01:34;4.18;;;3.05;;
9364;SDS011;4722;49.340;9.800;2023-08-24T03:04:03;3.38;;;2.30;;
9364;SDS011;4722;49.340;9.800;2023-08-24T03:06:30;8.25;;;3.85;;
9364;SDS011;4722;49.340;9.800;2023-08-24T03:08:56;4.47;;;2.53;;
9364;SDS011;4722;49.340;9.800;2023-08-24T03:11:22;6.93;;;3.78;;
9364;SDS011;4722;49.340;9.800;2023-08-24T03:13:48;3.75;;;2.78;;
9364;SDS011;4722;49.340;9.800;2023-08-24T03:16:14;5.97;;;2.47;;
9364;SDS011;4722;49.340;9.800;2023-08-24T03:18:40;7.50;;;3.00;;
9364;SDS011;4722;49.340;9.800;2023-08-24T03:21:06;3.40;;;2.28;;
9364;SDS011;4722;49.340;9.800;2023-08-24T03:23:32;6.55;;;3.05;;
9364;SDS011;4722;49.340;9.800;2023-08-24T03:25:58;4.05;;;2.65;;
9364;SDS011;4722;49.340;9.800;2023-08-24T03:28:24;4.55;;;2.97;;
9364;SDS011;4722;49.340;9.800;2023-08-24T03:30:51;4.43;;;3.17;;
9364;SDS011;4722;49.340;9.800;2023-08-24T03:33:17;6.40;;;3.20;;
9364;SDS011;4722;49.340;9.800;2023-08-24T03:35:44;3.90;;;2.78;;
9364;SDS011;4722;49.340;9.800;2023-08-24T03:38:10;5.97;;;3.53;;
9364;SDS011;4722;49.340;9.800;2023-08-24T03:40:36;5.45;;;3.15;;
9364;SDS011;4722;49.340;9.800;2023-08-24T03:43:02;7.43;;;3.30;;
9364;SDS011;4722;49.340;9.800;2023-08-24T03:45:28;3.90;;;2.88;;
9364;SDS011;4722;49.340;9.800;2023-08-24T03:47:54;4.65;;;2.83;;
9364;SDS011;4722;49.340;9.800;2023-08-24T03:50:20;4.28;;;2.92;;
9364;SDS011;4722;49.340;9.800;2023-08-24T03:52:47;5.72;;;2.80;;
9364;SDS011;4722;49.340;9.800;2023-08-24T03:55:13;9.82;;;3.33;;
9364;SDS011;4722;49.340;9.800;2023-08-24T03:57:39;5.13;;;3.17;;
9364;SDS011;4722;49.340;9.800;2023-08-24T04:00:05;6.88;;;3.42;;
9364;SDS011;4722;49.340;9.800;2023-08-24T04:02:35;4.40;;;2.90;;
9364;SDS011;4722;49.340;9.800;2023-08-24T04:05:02;3.80;;;2.70;;
9364;SDS011;4722;49.340;9.800;2023-08-24T04:07:28;3.80;;;2.95;;
9364;SDS011;4722;49.340;9.800;2023-08-24T04:09:56;4.18;;;2.83;;
9364;SDS011;4722;49.340;9.800;2023-08-24T04:12:22;5.47;;;3.10;;
9364;SDS011;4722;49.340;9.800;2023-08-24T04:14:48;5.53;;;3.53;;
9364;SDS011;4722;49.340;9.800;2023-08-24T04:17:14;4.57;;;3.20;;
9364;SDS011;4722;49.340;9.800;2023-08-24T04:19:40;4.55;;;2.97;;
9364;SDS011;4722;49.340;9.800;2023-08-24T04:22:05;5.00;;;2.67;;
9364;SDS011;4722;49.340;9.800;2023-08-24T04:24:31;8.50;;;3.42;;
9364;SDS011;4722;49.340;9.800;2023-08-24T04:26:57;4.97;;;2.80;;
9364;SDS011;4722;49.340;9.800;2023-08-24T04:29:23;9.75;;;3.60;;
9364;SDS011;4722;49.340;9.800;2023-08-24T04:31:49;4.63;;;2.80;;
9364;SDS011;4722;49.340;9.800;2023-08-24T04:34:15;4.72;;;3.28;;
9364;SDS011;4722;49.340;9.800;2023-08-24T04:36:41;6.05;;;3.05;;
9364;SDS011;4722;49.340;9.800;2023-08-24T04:39:07;7.40;;;3.47;;
9364;SDS011;4722;49.340;9.800;2023-08-24T04:41:33;4.43;;;3.03;;
9364;SDS011;4722;49.340;9.800;2023-08-24T04:43:59;8.93;;;2.80;;
9364;SDS011;4722;49.340;9.800;2023-08-24T04:46:25;4.60;;;3.25;;
9364;SDS011;4722;49.340;9.800;2023-08-24T04:48:51;4.78;;;3.00;;
9364;SDS011;4722;49.340;9.800;2023-08-24T04:51:17;4.45;;;2.83;;
9364;SDS011;4722;49.340;9.800;2023-08-24T04:53:43;7.35;;;2.97;;
9364;SDS011;4722;49.340;9.800;2023-08-24T04:56:09;3.97;;;2.85;;
9364;SDS011;4722;49.340;9.800;2023-08-24T04:58:34;5.65;;;2.97;;
9364;SDS011;4722;49.340;9.800;2023-08-24T05:01:00;4.63;;;2.45;;
9364;SDS011;4722;49.340;9.800;2023-08-24T05:03:26;6.15;;;2.42;;
9364;SDS011;4722;49.340;9.800;2023-08-24T05:05:52;3.97;;;2.83;;
9364;SDS011;4722;49.340;9.800;2023-08-24T05:08:18;8.15;;;3.13;;
9364;SDS011;4722;49.340;9.800;2023-08-24T05:10:44;5.20;;;2.72;;
9364;SDS011;4722;49.340;9.800;2023-08-24T05:13:10;2.95;;;2.45;;
9364;SDS011;4722;49.340;9.800;2023-08-24T05:15:36;5.22;;;2.40;;
9364;SDS011;4722;49.340;9.800;2023-08-24T05:18:02;4.60;;;2.85;;
9364;SDS011;4722;49.340;9.800;2023-08-24T05:20:28;5.18;;;2.58;;
9364;SDS011;4722;49.340;9.800;2023-08-24T05:22:54;7.90;;;2.50;;
9364;SDS011;4722;49.340;9.800;2023-08-24T05:25:21;4.00;;;2.67;;
9364;SDS011;4722;49.340;9.800;2023-08-24T05:27:47;5.40;;;2.75;;
9364;SDS011;4722;49.340;9.800;2023-08-24T05:30:13;7.20;;;3.33;;
9364;SDS011;4722;49.340;9.800;2023-08-24T05:32:39;8.00;;;3.10;;
9364;SDS011;4722;49.340;9.800;2023-08-24T05:35:05;12.68;;;3.10;;
9364;SDS011;4722;49.340;9.800;2023-08-24T05:37:31;4.57;;;2.55;;
9364;SDS011;4722;49.340;9.800;2023-08-24T05:39:57;3.78;;;2.55;;
9364;SDS011;4722;49.340;9.800;2023-08-24T05:42:23;5.97;;;2.92;;
9364;SDS011;4722;49.340;9.800;2023-08-24T05:44:49;5.55;;;3.35;;
9364;SDS011;4722;49.340;9.800;2023-08-24T05:47:15;7.75;;;2.63;;
9364;SDS011;4722;49.340;9.800;2023-08-24T05:49:41;5.22;;;2.90;;
9364;SDS011;4722;49.340;9.800;2023-08-24T05:52:07;4.57;;;3.40;;
9364;SDS011;4722;49.340;9.800;2023-08-24T05:54:33;3.42;;;2.25;;
9364;SDS011;4722;49.340;9.800;2023-08-24T05:56:59;3.13;;;2.28;;
9364;SDS011;4722;49.340;9.800;2023-08-24T05:59:26;3.88;;;2.70;;
9364;SDS011;4722;49.340;9.800;2023-08-24T06:01:52;4.05;;;2.80;;
9364;SDS011;4722;49.340;9.800;2023-08-24T06:04:18;3.55;;;2.42;;
9364;SDS011;4722;49.340;9.800;2023-08-24T06:06:44;3.63;;;2.50;;
9364;SDS011;4722;49.340;9.800;2023-08-24T06:09:10;3.75;;;2.10;;
9364;SDS011;4722;49.340;9.800;2023-08-24T06:11:35;3.83;;;2.00;;
9364;SDS011;4722;49.340;9.800;2023-08-24T06:14:01;5.10;;;2.72;;
9364;SDS011;4722;49.340;9.800;2023-08-24T06:16:27;5.78;;;2.67;;
9364;SDS011;4722;49.340;9.800;2023-08-24T06:18:53;2.83;;;2.10;;
9364;SDS011;4722;49.340;9.800;2023-08-24T06:21:19;4.20;;;2.33;;
9364;SDS011;4722;49.340;9.800;2023-08-24T06:23:45;5.30;;;2.53;;
9364;SDS011;4722;49.340;9.800;2023-08-24T06:26:12;3.17;;;1.92;;
9364;SDS011;4722;49.340;9.800;2023-08-24T06:28:38;6.53;;;2.13;;
9364;SDS011;4722;49.340;9.800;2023-08-24T06:31:04;5.13;;;2.17;;
9364;SDS011;4722;49.340;9.800;2023-08-24T06:33:35;6.95;;;2.08;;
9364;SDS011;4722;49.340;9.800;2023-08-24T06:36:02;10.20;;;2.40;;
9364;SDS011;4722;49.340;9.800;2023-08-24T06:38:30;2.58;;;1.70;;
9364;SDS011;4722;49.340;9.800;2023-08-24T06:40:57;5.65;;;2.10;;
9364;SDS011;4722;49.340;9.800;2023-08-24T06:43:23;4.40;;;2.17;;
9364;SDS011;4722;49.340;9.800;2023-08-24T06:45:49;4.93;;;2.45;;
9364;SDS011;4722;49.340;9.800;2023-08-24T06:48:15;6.93;;;2.42;;
9364;SDS011;4722;49.340;9.800;2023-08-24T06:50:41;3.95;;;2.20;;
9364;SDS011;4722;49.340;9.800;2023-08-24T06:53:07;4.07;;;2.35;;
9364;SDS011;4722;49.340;9.800;2023-08-24T06:55:33;6.35;;;2.47;;
9364;SDS011;4722;49.340;9.800;2023-08-24T06:57:59;4.80;;;1.85;;
9364;SDS011;4722;49.340;9.800;2023-08-24T07:00:25;4.57;;;2.08;;
9364;SDS011;4722;49.340;9.800;2023-08-24T07:02:51;3.40;;;1.80;;
9364;SDS011;4722;49.340;9.800;2023-08-24T07:05:17;2.85;;;1.73;;
9364;SDS011;4722;49.340;9.800;2023-08-24T07:07:46;3.70;;;1.80;;
9364;SDS011;4722;49.340;9.800;2023-08-24T07:10:12;3.72;;;1.77;;
9364;SDS011;4722;49.340;9.800;2023-08-24T07:12:38;2.88;;;1.60;;
9364;SDS011;4722;49.340;9.800;2023-08-24T07:15:06;9.18;;;2.03;;
9364;SDS011;4722;49.340;9.800;2023-08-24T07:17:32;3.17;;;1.80;;
9364;SDS011;4722;49.340;9.800;2023-08-24T07:19:58;6.35;;;2.42;;
9364;SDS011;4722;49.340;9.800;2023-08-24T07:22:24;3.40;;;2.03;;
9364;SDS011;4722;49.340;9.800;2023-08-24T07:24:53;8.23;;;1.80;;
9364;SDS011;4722;49.340;9.800;2023-08-24T07:27:19;4.22;;;1.90;;
9364;SDS011;4722;49.340;9.800;2023-08-24T07:29:44;3.90;;;1.25;;
9364;SDS011;4722;49.340;9.800;2023-08-24T07:32:10;3.17;;;1.33;;
9364;SDS011;4722;49.340;9.800;2023-08-24T07:34:36;2.40;;;1.48;;
9364;SDS011;4722;49.340;9.800;2023-08-24T07:37:02;4.05;;;1.50;;
9364;SDS011;4722;49.340;9.800;2023-08-24T07:39:28;2.63;;;1.10;;
9364;SDS011;4722;49.340;9.800;2023-08-24T07:41:54;5.47;;;1.83;;
9364;SDS011;4722;49.340;9.800;2023-08-24T07:44:20;2.05;;;1.13;;
9364;SDS011;4722;49.340;9.800;2023-08-24T07:46:46;1.80;;;0.98;;
9364;SDS011;4722;49.340;9.800;2023-08-24T07:49:12;2.30;;;1.60;;
9364;SDS011;4722;49.340;9.800;2023-08-24T07:51:38;1.83;;;0.93;;
9364;SDS011;4722;49.340;9.800;2023-08-24T07:54:04;4.22;;;0.90;;
9364;SDS011;4722;49.340;9.800;2023-08-24T07:56:31;2.22;;;1.65;;
9364;SDS011;4722;49.340;9.800;2023-08-24T07:58:57;2.58;;;1.40;;
9364;SDS011;4722;49.340;9.800;2023-08-24T08:01:23;5.93;;;1.48;;
9364;SDS011;4722;49.340;9.800;2023-08-24T08:03:49;3.65;;;0.93;;
9364;SDS011;4722;49.340;9.800;2023-08-24T08:06:15;2.70;;;0.95;;
9364;SDS011;4722;49.340;9.800;2023-08-24T08:08:41;4.95;;;1.00;;
9364;SDS011;4722;49.340;9.800;2023-08-24T08:11:09;2.40;;;1.05;;
9364;SDS011;4722;49.340;9.800;2023-08-24T08:13:35;1.35;;;0.90;;
9364;SDS011;4722;49.340;9.800;2023-08-24T08:16:01;2.28;;;1.10;;
9364;SDS011;4722;49.340;9.800;2023-08-24T08:18:31;2.15;;;1.00;;
9364;SDS011;4722;49.340;9.800;2023-08-24T08:20:58;4.95;;;1.35;;
9364;SDS011;4722;49.340;9.800;2023-08-24T08:23:24;2.00;;;1.05;;
9364;SDS011;4722;49.340;9.800;2023-08-24T08:25:50;3.40;;;1.15;;
9364;SDS011;4722;49.340;9.800;2023-08-24T08:28:16;2.60;;;1.33;;
9364;SDS011;4722;49.340;9.800;2023-08-24T08:30:42;1.55;;;0.73;;
9364;SDS011;4722;49.340;9.800;2023-08-24T08:33:08;9.50;;;0.98;;
9364;SDS011;4722;49.340;9.800;2023-08-24T08:35:34;1.80;;;1.23;;
9364;SDS011;4722;49.340;9.800;2023-08-24T08:38:00;1.90;;;0.90;;
9364;SDS011;4722;49.340;9.800;2023-08-24T08:40:26;1.73;;;0.93;;
9364;SDS011;4722;49.340;9.800;2023-08-24T08:42:58;1.80;;;0.90;;
9364;SDS011;4722;49.340;9.800;2023-08-24T08:45:24;1.20;;;0.82;;
9364;SDS011;4722;49.340;9.800;2023-08-24T08:47:51;2.88;;;0.95;;
9364;SDS011;4722;49.340;9.800;2023-08-24T08:50:17;2.92;;;1.20;;
9364;SDS011;4722;49.340;9.800;2023-08-24T08:52:43;5.45;;;1.10;;
9364;SDS011;4722;49.340;9.800;2023-08-24T08:55:09;1.75;;;0.90;;
9364;SDS011;4722;49.340;9.800;2023-08-24T08:57:36;1.75;;;0.68;;
9364;SDS011;4722;49.340;9.800;2023-08-24T09:00:04;3.53;;;0.73;;
9364;SDS011;4722;49.340;9.800;2023-08-24T09:02:31;2.03;;;0.88;;
9364;SDS011;4722;49.340;9.800;2023-08-24T09:04:57;3.70;;;0.68;;
9364;SDS011;4722;49.340;9.800;2023-08-24T09:07:26;3.97;;;1.15;;
9364;SDS011;4722;49.340;9.800;2023-08-24T09:09:53;1.63;;;0.73;;
9364;SDS011;4722;49.340;9.800;2023-08-24T09:12:19;2.75;;;0.93;;
9364;SDS011;4722;49.340;9.800;2023-08-24T09:14:45;4.70;;;1.48;;
9364;SDS011;4722;49.340;9.800;2023-08-24T09:17:18;2.03;;;0.95;;
9364;SDS011;4722;49.340;9.800;2023-08-24T09:19:45;3.47;;;0.52;;
9364;SDS011;4722;49.340;9.800;2023-08-24T09:22:11;4.68;;;1.30;;
9364;SDS011;4722;49.340;9.800;2023-08-24T09:24:37;1.80;;;0.88;;
9364;SDS011;4722;49.340;9.800;2023-08-24T09:27:14;1.73;;;0.70;;
9364;SDS011;4722;49.340;9.800;2023-08-24T09:29:41;1.58;;;1.02;;
9364;SDS011;4722;49.340;9.800;2023-08-24T09:32:10;8.98;;;1.25;;
9364;SDS011;4722;49.340;9.800;2023-08-24T09:34:36;2.13;;;1.10;;
9364;SDS011;4722;49.340;9.800;2023-08-24T09:37:02;1.73;;;0.88;;
9364;SDS011;4722;49.340;9.800;2023-08-24T09:39:31;2.88;;;1.15;;
9364;SDS011;4722;49.340;9.800;2023-08-24T09:41:59;1.58;;;0.95;;
9364;SDS011;4722;49.340;9.800;2023-08-24T09:44:28;2.85;;;1.02;;
9364;SDS011;4722;49.340;9.800;2023-08-24T09:46:54;3.03;;;1.08;;
9364;SDS011;4722;49.340;9.800;2023-08-24T09:49:20;1.70;;;1.00;;
9364;SDS011;4722;49.340;9.800;2023-08-24T09:51:46;3.10;;;0.93;;
9364;SDS011;4722;49.340;9.800;2023-08-24T09:54:15;1.92;;;1.13;;
9364;SDS011;4722;49.340;9.800;2023-08-24T09:56:46;4.20;;;2.13;;
9364;SDS011;4722;49.340;9.800;2023-08-24T09:59:16;5.05;;;1.48;;
9364;SDS011;4722;49.340;9.800;2023-08-24T10:01:47;5.47;;;1.60;;
9364;SDS011;4722;49.340;9.800;2023-08-24T10:04:14;3.75;;;1.75;;
9364;SDS011;4722;49.340;9.800;2023-08-24T10:06:46;3.97;;;1.77;;
9364;SDS011;4722;49.340;9.800;2023-08-24T10:09:21;4.15;;;1.83;;
9364;SDS011;4722;49.340;9.800;2023-08-24T10:11:52;3.03;;;1.45;;
9364;SDS011;4722;49.340;9.800;2023-08-24T10:14:27;2.53;;;1.30;;
9364;SDS011;4722;49.340;9.800;2023-08-24T10:16:57;5.25;;;1.23;;
9364;SDS011;4722;49.340;9.800;2023-08-24T10:19:23;3.40;;;1.10;;
9364;SDS011;4722;49.340;9.800;2023-08-24T10:21:50;3.90;;;1.50;;
9364;SDS011;4722;49.340;9.800;2023-08-24T10:24:18;4.55;;;1.52;;
9364;SDS011;4722;49.340;9.800;2023-08-24T10:26:46;2.47;;;1.38;;
9364;SDS011;4722;49.340;9.800;2023-08-24T10:29:12;4.38;;;1.17;;
9364;SDS011;4722;49.340;9.800;2023-08-24T10:31:39;2.33;;;1.05;;
9364;SDS011;4722;49.340;9.800;2023-08-24T10:34:06;5.45;;;1.45;;
9364;SDS011;4722;49.340;9.800;2023-08-24T10:36:32;2.72;;;1.13;;
9364;SDS011;4722;49.340;9.800;2023-08-24T10:39:02;4.43;;;2.03;;
9364;SDS011;4722;49.340;9.800;2023-08-24T10:41:39;2.15;;;1.40;;
9364;SDS011;4722;49.340;9.800;2023-08-24T10:44:33;2.05;;;1.00;;
9364;SDS011;4722;49.340;9.800;2023-08-24T10:47:07;3.63;;;1.70;;
9364;SDS011;4722;49.340;9.800;2023-08-24T10:49:36;3.70;;;1.30;;
9364;SDS011;4722;49.340;9.800;2023-08-24T10:52:22;2.88;;;1.10;;
9364;SDS011;4722;49.340;9.800;2023-08-24T10:54:49;3.05;;;1.30;;
9364;SDS011;4722;49.340;9.800;2023-08-24T10:57:26;3.38;;;1.10;;
9364;SDS011;4722;49.340;9.800;2023-08-24T11:00:06;4.22;;;1.33;;
9364;SDS011;4722;49.340;9.800;2023-08-24T11:02:44;2.70;;;1.45;;
9364;SDS011;4722;49.340;9.800;2023-08-24T11:07:47;6.13;;;1.60;;
9364;SDS011;4722;49.340;9.800;2023-08-24T11:10:18;5.28;;;1.13;;
9364;SDS011;4722;49.340;9.800;2023-08-24T11:15:53;4.38;;;1.17;;
9364;SDS011;4722;49.340;9.800;2023-08-24T11:18:27;2.45;;;1.40;;
9364;SDS011;4722;49.340;9.800;2023-08-24T11:23:20;10.05;;;1.30;;
9364;SDS011;4722;49.340;9.800;2023-08-24T11:25:48;5.30;;;1.50;;
9364;SDS011;4722;49.340;9.800;2023-08-24T11:28:22;3.13;;;1.20;;
9364;SDS011;4722;49.340;9.800;2023-08-24T11:30:49;3.63;;;1.70;;
9364;SDS011;4722;49.340;9.800;2023-08-24T11:33:15;3.75;;;1.33;;
9364;SDS011;4722;49.340;9.800;2023-08-24T11:35:43;3.85;;;1.63;;
9364;SDS011;4722;49.340;9.800;2023-08-24T11:38:10;2.97;;;1.38;;
9364;SDS011;4722;49.340;9.800;2023-08-24T11:40:36;3.00;;;1.75;;
9364;SDS011;4722;49.340;9.800;2023-08-24T11:43:03;5.28;;;1.50;;
9364;SDS011;4722;49.340;9.800;2023-08-24T11:45:30;4.68;;;2.28;;
9364;SDS011;4722;49.340;9.800;2023-08-24T11:47:58;5.50;;;1.60;;
9364;SDS011;4722;49.340;9.800;2023-08-24T11:50:25;5.85;;;2.75;;
9364;SDS011;4722;49.340;9.800;2023-08-24T11:52:52;3.25;;;1.50;;
9364;SDS011;4722;49.340;9.800;2023-08-24T11:55:18;1.88;;;1.42;;
9364;SDS011;4722;49.340;9.800;2023-08-24T11:57:44;2.90;;;1.95;;
9364;SDS011;4722;49.340;9.800;2023-08-24T12:00:10;4.43;;;1.48;;
9364;SDS011;4722;49.340;9.800;2023-08-24T12:02:38;6.45;;;1.92;;
9364;SDS011;4722;49.340;9.800;2023-08-24T12:05:07;3.83;;;1.63;;
9364;SDS011;4722;49.340;9.800;2023-08-24T12:07:44;2.92;;;1.77;;
9364;SDS011;4722;49.340;9.800;2023-08-24T12:10:10;6.18;;;1.58;;
9364;SDS011;4722;49.340;9.800;2023-08-24T12:12:37;2.95;;;1.52;;
9364;SDS011;4722;49.340;9.800;2023-08-24T12:15:03;2.75;;;1.65;;
9364;SDS011;4722;49.340;9.800;2023-08-24T12:17:30;3.78;;;1.85;;
9364;SDS011;4722;49.340;9.800;2023-08-24T12:19:57;3.63;;;1.70;;
9364;SDS011;4722;49.340;9.800;2023-08-24T12:22:25;5.20;;;1.98;;
9364;SDS011;4722;49.340;9.800;2023-08-24T12:24:50;3.38;;;1.55;;
9364;SDS011;4722;49.340;9.800;2023-08-24T12:27:17;3.03;;;1.42;;
9364;SDS011;4722;49.340;9.800;2023-08-24T12:29:50;3.80;;;1.65;;
9364;SDS011;4722;49.340;9.800;2023-08-24T12:32:17;4.25;;;1.90;;
9364;SDS011;4722;49.340;9.800;2023-08-24T12:34:50;2.63;;;1.58;;
9364;SDS011;4722;49.340;9.800;2023-08-24T12:37:16;2.65;;;1.60;;
9364;SDS011;4722;49.340;9.800;2023-08-24T12:39:42;1.60;;;1.00;;
9364;SDS011;4722;49.340;9.800;2023-08-24T12:42:08;3.20;;;1.92;;
9364;SDS011;4722;49.340;9.800;2023-08-24T12:44:34;3.15;;;1.27;;
9364;SDS011;4722;49.340;9.800;2023-08-24T12:47:02;8.00;;;1.70;;
9364;SDS011;4722;49.340;9.800;2023-08-24T12:49:28;3.80;;;1.55;;
9364;SDS011;4722;49.340;9.800;2023-08-24T12:51:54;2.80;;;1.33;;
9364;SDS011;4722;49.340;9.800;2023-08-24T12:54:19;2.90;;;1.50;;
9364;SDS011;4722;49.340;9.800;2023-08-24T12:56:46;3.75;;;1.85;;
9364;SDS011;4722;49.340;9.800;2023-08-24T12:59:12;2.28;;;1.50;;
9364;SDS011;4722;49.340;9.800;2023-08-24T13:01:38;4.65;;;1.65;;
9364;SDS011;4722;49.340;9.800;2023-08-24T13:04:04;2.70;;;1.80;;
9364;SDS011;4722;49.340;9.800;2023-08-24T13:06:30;2.58;;;1.63;;
9364;SDS011;4722;49.340;9.800;2023-08-24T13:08:56;2.92;;;0.95;;
9364;SDS011;4722;49.340;9.800;2023-08-24T13:11:22;5.85;;;1.75;;
9364;SDS011;4722;49.340;9.800;2023-08-24T13:13:48;2.67;;;1.40;;
9364;SDS011;4722;49.340;9.800;2023-08-24T13:16:17;3.03;;;1.65;;
9364;SDS011;4722;49.340;9.800;2023-08-24T13:18:42;1.80;;;1.00;;
9364;SDS011;4722;49.340;9.800;2023-08-24T13:21:09;1.95;;;1.20;;
9364;SDS011;4722;49.340;9.800;2023-08-24T13:23:35;7.10;;;1.67;;
9364;SDS011;4722;49.340;9.800;2023-08-24T13:26:01;3.03;;;1.60;;
9364;SDS011;4722;49.340;9.800;2023-08-24T13:28:27;4.82;;;2.55;;
9364;SDS011;4722;49.340;9.800;2023-08-24T13:30:54;4.05;;;1.40;;
9364;SDS011;4722;49.340;9.800;2023-08-24T13:33:20;3.75;;;1.10;;
9364;SDS011;4722;49.340;9.800;2023-08-24T13:35:46;2.58;;;1.30;;
9364;SDS011;4722;49.340;9.800;2023-08-24T13:38:12;3.67;;;1.33;;
9364;SDS011;4722;49.340;9.800;2023-08-24T13:40:38;2.30;;;1.45;;
9364;SDS011;4722;49.340;9.800;2023-08-24T13:43:03;4.22;;;1.40;;
9364;SDS011;4722;49.340;9.800;2023-08-24T13:45:29;2.65;;;1.00;;
9364;SDS011;4722;49.340;9.800;2023-08-24T13:47:56;6.82;;;1.70;;
9364;SDS011;4722;49.340;9.800;2023-08-24T13:50:22;3.15;;;1.00;;
9364;SDS011;4722;49.340;9.800;2023-08-24T13:52:49;3.75;;;1.25;;
9364;SDS011;4722;49.340;9.800;2023-08-24T13:55:15;3.33;;;1.10;;
9364;SDS011;4722;49.340;9.800;2023-08-24T13:57:41;5.93;;;1.55;;
9364;SDS011;4722;49.340;9.800;2023-08-24T14:00:07;3.40;;;1.30;;
9364;SDS011;4722;49.340;9.800;2023-08-24T14:02:34;3.83;;;1.70;;
9364;SDS011;4722;49.340;9.800;2023-08-24T14:04:59;1.75;;;1.23;;
9364;SDS011;4722;49.340;9.800;2023-08-24T14:07:25;6.07;;;1.85;;
9364;SDS011;4722;49.340;9.800;2023-08-24T14:09:51;2.53;;;1.30;;
9364;SDS011;4722;49.340;9.800;2023-08-24T14:12:17;4.15;;;1.90;;
9364;SDS011;4722;49.340;9.800;2023-08-24T14:14:43;1.75;;;1.05;;
9364;SDS011;4722;49.340;9.800;2023-08-24T14:17:09;2.60;;;1.27;;
9364;SDS011;4722;49.340;9.800;2023-08-24T14:19:35;2.80;;;1.20;;
9364;SDS011;4722;49.340;9.800;2023-08-24T14:22:01;3.63;;;1.10;;
9364;SDS011;4722;49.340;9.800;2023-08-24T14:24:27;2.78;;;1.50;;
9364;SDS011;4722;49.340;9.800;2023-08-24T14:26:54;3.20;;;1.58;;
9364;SDS011;4722;49.340;9.800;2023-08-24T14:29:20;5.95;;;1.33;;
9364;SDS011;4722;49.340;9.800;2023-08-24T14:31:47;3.35;;;1.98;;
9364;SDS011;4722;49.340;9.800;2023-08-24T14:34:13;6.07;;;1.98;;
9364;SDS011;4722;49.340;9.800;2023-08-24T14:36:39;2.47;;;1.40;;
9364;SDS011;4722;49.340;9.800;2023-08-24T14:39:05;2.47;;;1.23;;
9364;SDS011;4722;49.340;9.800;2023-08-24T14:41:32;1.70;;;1.30;;
9364;SDS011;4722;49.340;9.800;2023-08-24T14:43:58;2.88;;;1.73;;
9364;SDS011;4722;49.340;9.800;2023-08-24T14:46:24;3.13;;;1.42;;
9364;SDS011;4722;49.340;9.800;2023-08-24T14:48:50;2.63;;;1.40;;
9364;SDS011;4722;49.340;9.800;2023-08-24T14:51:16;4.40;;;1.63;;
9364;SDS011;4722;49.340;9.800;2023-08-24T14:53:42;3.50;;;1.98;;
9364;SDS011;4722;49.340;9.800;2023-08-24T14:56:08;2.38;;;1.08;;
9364;SDS011;4722;49.340;9.800;2023-08-24T14:58:35;2.10;;;1.38;;
9364;SDS011;4722;49.340;9.800;2023-08-24T15:01:01;2.90;;;1.75;;
9364;SDS011;4722;49.340;9.800;2023-08-24T15:03:27;2.53;;;1.27;;
9364;SDS011;4722;49.340;9.800;2023-08-24T15:06:03;3.78;;;2.00;;
9364;SDS011;4722;49.340;9.800;2023-08-24T15:08:30;2.22;;;1.55;;
9364;SDS011;4722;49.340;9.800;2023-08-24T15:10:57;2.40;;;1.00;;
9364;SDS011;4722;49.340;9.800;2023-08-24T15:13:24;3.33;;;1.50;;
9364;SDS011;4722;49.340;9.800;2023-08-24T15:15:52;2.65;;;1.48;;
9364;SDS011;4722;49.340;9.800;2023-08-24T15:18:20;3.03;;;1.55;;
9364;SDS011;4722;49.340;9.800;2023-08-24T15:20:46;4.80;;;2.38;;
9364;SDS011;4722;49.340;9.800;2023-08-24T15:23:21;2.25;;;1.52;;